createdAt,value
2023-02-15T00:01:21.172Z,74.55
2023-02-15T00:03:57.547Z,74.31
2023-02-15T00:06:35.070Z,74.35
2023-02-15T00:09:12.556Z,74.73
2023-02-15T00:11:52.093Z,74.54
2023-02-15T00:14:29.634Z,74.28
2023-02-15T00:17:06.175Z,74.21
2023-02-15T00:19:42.511Z,74.38
2023-02-15T00:22:18.712Z,74.52
2023-02-15T00:24:55.023Z,74.58
2023-02-15T00:27:31.622Z,74.60
2023-02-15T00:30:10.010Z,74.77
2023-02-15T00:32:46.370Z,75.21
2023-02-15T00:35:22.897Z,74.90
2023-02-15T00:37:59.560Z,74.75
2023-02-15T00:40:35.879Z,74.51
2023-02-15T00:43:12.121Z,74.47
2023-02-15T00:45:53.768Z,74.59
2023-02-15T00:48:30.758Z,74.70
2023-02-15T00:51:07.388Z,74.74
2023-02-15T00:53:43.851Z,74.78
2023-02-15T00:56:20.322Z,74.91
2023-02-15T00:58:56.654Z,75.03
2023-02-15T01:01:33.000Z,74.78
2023-02-15T01:04:10.251Z,74.68
2023-02-15T01:06:46.703Z,74.45
2023-02-15T01:09:23.425Z,74.45
2023-02-15T01:11:59.852Z,74.34
2023-02-15T01:14:36.542Z,74.59
2023-02-15T01:17:14.854Z,74.71
2023-02-15T01:19:52.369Z,74.70
2023-02-15T01:22:29.158Z,74.73
2023-02-15T01:25:05.928Z,74.77
2023-02-15T01:27:42.238Z,74.71
2023-02-15T01:30:20.707Z,74.65
2023-02-15T01:32:58.359Z,74.66
2023-02-15T01:35:35.247Z,74.69
2023-02-15T01:38:11.596Z,74.66
2023-02-15T01:40:47.953Z,74.66
2023-02-15T01:43:40.904Z,74.64
2023-02-15T01:46:21.312Z,74.75
2023-02-15T01:49:11.078Z,74.98
2023-02-15T01:51:53.561Z,74.94
2023-02-15T01:54:36.970Z,74.91
2023-02-15T01:57:21.712Z,74.85
2023-02-15T02:00:04.051Z,75.05
2023-02-15T02:02:56.215Z,75.19
2023-02-15T02:05:36.444Z,75.34
2023-02-15T02:08:14.268Z,75.48
2023-02-15T02:10:50.672Z,75.50
2023-02-15T02:13:27.144Z,75.43
2023-02-15T02:16:13.852Z,75.39
2023-02-15T02:19:12.291Z,75.40
2023-02-15T02:22:52.439Z,75.51
2023-02-15T02:26:43.126Z,75.60
2023-02-15T02:30:38.293Z,75.71
2023-02-15T02:33:56.368Z,75.68
2023-02-15T02:36:48.530Z,75.72
2023-02-15T02:39:44.825Z,75.81
2023-02-15T02:42:34.545Z,75.80
2023-02-15T02:45:18.846Z,75.77
2023-02-15T02:48:03.129Z,75.84
2023-02-15T02:50:43.195Z,75.87
2023-02-15T02:53:19.667Z,75.90
2023-02-15T02:56:01.843Z,75.90
2023-02-15T02:58:48.315Z,75.99
2023-02-15T03:01:34.222Z,75.90
2023-02-15T03:04:16.532Z,75.96
2023-02-15T03:06:57.503Z,76.02
2023-02-15T03:09:43.639Z,76.07
2023-02-15T03:12:26.668Z,76.09
2023-02-15T03:15:12.131Z,76.17
2023-02-15T03:17:55.473Z,76.25
2023-02-15T03:20:38.890Z,76.40
2023-02-15T03:23:24.122Z,76.56
2023-02-15T03:26:08.472Z,76.42
2023-02-15T03:28:52.071Z,76.36
2023-02-15T03:31:34.077Z,76.41
2023-02-15T03:34:15.348Z,76.49
2023-02-15T03:37:01.948Z,76.52
2023-02-15T03:39:45.444Z,76.57
2023-02-15T03:42:31.847Z,76.49
2023-02-15T03:45:16.916Z,76.49
2023-02-15T03:47:58.070Z,76.42
2023-02-15T03:50:55.910Z,76.37
2023-02-15T03:53:32.898Z,76.44
2023-02-15T03:56:09.659Z,76.38
2023-02-15T03:59:03.349Z,76.38
2023-02-15T04:02:01.866Z,76.46
2023-02-15T04:04:48.387Z,76.54
2023-02-15T04:07:25.184Z,76.59
2023-02-15T04:10:18.672Z,76.58
2023-02-15T04:12:54.985Z,76.53
2023-02-15T04:15:49.285Z,76.56
2023-02-15T04:18:43.450Z,76.57
2023-02-15T04:21:37.789Z,76.60
2023-02-15T04:24:33.023Z,76.59
2023-02-15T04:27:10.181Z,76.61
2023-02-15T04:29:46.469Z,76.68
2023-02-15T04:32:22.992Z,76.69
2023-02-15T04:34:59.389Z,76.70
2023-02-15T04:37:35.666Z,76.71
2023-02-15T04:40:18.681Z,76.70
2023-02-15T04:42:55.905Z,76.76
2023-02-15T04:45:32.256Z,76.73
2023-02-15T04:48:09.726Z,76.70
2023-02-15T04:50:46.389Z,76.61
2023-02-15T04:53:22.869Z,76.68
2023-02-15T04:55:59.569Z,76.79
2023-02-15T04:58:36.278Z,76.86
2023-02-15T05:01:13.277Z,76.80
2023-02-15T05:03:49.849Z,76.70
2023-02-15T05:06:26.749Z,76.72
2023-02-15T05:09:03.217Z,76.84
2023-02-15T05:11:39.515Z,76.80
2023-02-15T05:14:15.847Z,76.95
2023-02-15T05:16:52.174Z,76.90
2023-02-15T05:19:28.825Z,76.85
2023-02-15T05:22:05.111Z,76.88
2023-02-15T05:24:59.126Z,76.95
2023-02-15T05:27:53.172Z,77.02
2023-02-15T05:30:30.274Z,77.00
2023-02-15T05:33:06.959Z,77.01
2023-02-15T05:35:43.851Z,77.04
2023-02-15T05:38:20.140Z,77.10
2023-02-15T05:40:57.989Z,77.15
2023-02-15T05:43:34.969Z,77.07
2023-02-15T05:46:12.294Z,77.04
2023-02-15T05:48:48.600Z,77.06
2023-02-15T05:51:25.300Z,77.12
2023-02-15T05:54:01.518Z,77.18
2023-02-15T05:56:37.721Z,77.14
2023-02-15T05:59:14.378Z,77.15
2023-02-15T06:01:50.647Z,77.17
2023-02-15T06:04:27.211Z,77.20
2023-02-15T06:07:03.703Z,77.19
2023-02-15T06:09:40.153Z,77.15
2023-02-15T06:12:16.431Z,77.11
2023-02-15T06:14:52.807Z,77.13
2023-02-15T06:17:29.498Z,77.19
2023-02-15T06:20:07.935Z,77.12
2023-02-15T06:22:44.401Z,77.20
2023-02-15T06:25:22.021Z,77.10
2023-02-15T06:27:58.361Z,77.19
2023-02-15T06:30:35.602Z,77.22
2023-02-15T06:33:11.850Z,77.20
2023-02-15T06:35:48.612Z,77.25
2023-02-15T06:38:24.944Z,77.29
2023-02-15T06:41:01.384Z,77.20
2023-02-15T06:43:39.987Z,77.14
2023-02-15T06:46:17.315Z,77.13
2023-02-15T06:48:53.852Z,77.15
2023-02-15T06:51:30.173Z,77.10
2023-02-15T06:54:06.727Z,77.10
2023-02-15T06:56:43.248Z,77.21
2023-02-15T06:59:19.958Z,77.10
2023-02-15T07:01:56.556Z,77.17
2023-02-15T07:04:32.941Z,76.85
2023-02-15T07:07:12.594Z,76.91
2023-02-15T07:09:48.963Z,76.86
2023-02-15T07:12:43.864Z,76.76
2023-02-15T07:15:23.170Z,76.81
2023-02-15T07:18:00.881Z,76.75
2023-02-15T07:20:37.964Z,76.71
2023-02-15T07:23:14.263Z,76.75
2023-02-15T07:25:50.592Z,76.71
2023-02-15T07:28:27.162Z,76.77
2023-02-15T07:31:04.965Z,76.57
2023-02-15T07:33:41.515Z,76.65
2023-02-15T07:36:17.822Z,76.50
2023-02-15T07:38:54.265Z,76.31
2023-02-15T07:41:30.530Z,76.28
2023-02-15T07:44:07.403Z,76.24
2023-02-15T07:46:44.145Z,76.25
2023-02-15T07:49:21.051Z,76.17
2023-02-15T07:51:57.531Z,76.15
2023-02-15T07:54:34.286Z,76.16
2023-02-15T07:57:10.667Z,76.12
2023-02-15T07:59:47.033Z,75.99
2023-02-15T08:02:23.616Z,75.97
2023-02-15T08:05:00.102Z,75.93
2023-02-15T08:07:36.799Z,75.80
2023-02-15T08:10:34.711Z,75.73
2023-02-15T08:13:11.101Z,75.46
2023-02-15T08:15:53.833Z,75.55
2023-02-15T08:18:30.260Z,75.34
2023-02-15T08:21:07.436Z,75.25
2023-02-15T08:23:43.707Z,75.16
2023-02-15T08:26:20.333Z,75.21
2023-02-15T08:28:57.527Z,75.05
2023-02-15T08:31:34.090Z,74.92
2023-02-15T08:34:12.575Z,74.88
2023-02-15T08:36:49.487Z,74.71
2023-02-15T08:39:26.275Z,74.37
2023-02-15T08:42:05.028Z,74.36
2023-02-15T08:44:41.755Z,73.98
2023-02-15T08:47:18.083Z,73.57
2023-02-15T08:49:55.065Z,73.58
2023-02-15T08:52:31.731Z,73.63
2023-02-15T08:55:09.444Z,73.47
2023-02-15T08:57:47.019Z,73.28
2023-02-15T09:00:26.163Z,72.77
2023-02-15T09:03:02.501Z,73.01
2023-02-15T09:05:39.006Z,72.83
2023-02-15T09:08:15.502Z,72.59
2023-02-15T09:10:51.777Z,72.25
2023-02-15T09:13:28.273Z,72.24
2023-02-15T09:16:11.399Z,72.35
2023-02-15T09:18:48.503Z,72.39
2023-02-15T09:21:27.530Z,72.14
2023-02-15T09:24:08.975Z,71.71
2023-02-15T09:26:50.157Z,71.82
2023-02-15T09:29:26.629Z,71.01
2023-02-15T09:32:02.917Z,70.84
2023-02-15T09:34:39.509Z,70.70
2023-02-15T09:37:15.740Z,70.69
2023-02-15T09:39:52.072Z,70.12
2023-02-15T09:43:00.385Z,69.75
2023-02-15T09:46:08.736Z,69.80
2023-02-15T09:48:54.557Z,69.86
2023-02-15T09:52:28.847Z,69.61
2023-02-15T09:55:27.062Z,69.73
2023-02-15T09:58:19.014Z,69.02
2023-02-15T10:01:07.485Z,69.36
2023-02-15T10:04:23.180Z,69.38
2023-02-15T10:07:12.908Z,69.37
2023-02-15T10:10:12.361Z,69.25
2023-02-15T10:13:20.258Z,69.47
2023-02-15T10:16:17.774Z,68.73
2023-02-15T10:19:06.998Z,69.05
2023-02-15T10:22:05.713Z,69.31
2023-02-15T10:25:14.783Z,69.73
2023-02-15T10:27:53.957Z,69.33
2023-02-15T10:30:42.485Z,69.48
2023-02-15T10:33:42.554Z,69.61
2023-02-15T10:36:50.240Z,70.07
2023-02-15T10:39:40.728Z,69.58
2023-02-15T10:42:32.906Z,69.88
2023-02-15T10:45:23.458Z,69.84
2023-02-15T10:48:24.893Z,69.98
2023-02-15T10:51:05.284Z,69.68
2023-02-15T10:54:08.958Z,70.09
2023-02-15T10:56:58.598Z,69.96
2023-02-15T11:00:00.693Z,69.99
2023-02-15T11:02:59.271Z,69.76
2023-02-15T11:05:57.331Z,70.00
2023-02-15T11:08:37.825Z,70.27
2023-02-15T11:11:22.911Z,69.89
2023-02-15T11:14:07.767Z,69.92
2023-02-15T11:16:52.662Z,69.80
2023-02-15T11:19:36.787Z,69.93
2023-02-15T11:22:17.763Z,70.18
2023-02-15T11:24:58.645Z,69.97
2023-02-15T11:27:37.193Z,69.76
2023-02-15T11:30:24.771Z,70.50
2023-02-15T11:33:07.700Z,70.41
2023-02-15T11:35:55.989Z,69.59
2023-02-15T11:38:36.576Z,69.41
2023-02-15T11:41:17.998Z,69.74
2023-02-15T11:44:07.167Z,69.38
2023-02-15T11:46:43.896Z,69.38
2023-02-15T11:49:36.268Z,69.40
2023-02-15T11:52:19.624Z,68.79
2023-02-15T11:54:57.348Z,68.99
2023-02-15T11:57:42.888Z,69.11
2023-02-15T12:00:36.889Z,69.50
2023-02-15T12:03:29.371Z,69.56
2023-02-15T12:06:15.329Z,69.59
2023-02-15T12:09:02.509Z,69.55
2023-02-15T12:11:46.035Z,69.26
2023-02-15T12:14:22.503Z,68.81
2023-02-15T12:17:00.732Z,68.74
2023-02-15T12:19:42.692Z,68.70
2023-02-15T12:22:30.465Z,68.85
2023-02-15T12:25:25.486Z,68.87
2023-02-15T12:28:02.134Z,68.78
2023-02-15T12:30:45.069Z,68.45
2023-02-15T12:33:34.824Z,68.49
2023-02-15T12:36:24.915Z,67.91
2023-02-15T12:39:30.144Z,68.28
2023-02-15T12:42:21.091Z,68.30
2023-02-15T12:45:23.235Z,68.27
2023-02-15T12:48:19.139Z,68.17
2023-02-15T12:51:11.601Z,68.51
2023-02-15T12:53:48.086Z,68.50
2023-02-15T12:56:31.480Z,68.47
2023-02-15T12:59:23.158Z,68.43
2023-02-15T13:02:04.179Z,68.73
2023-02-15T13:04:49.904Z,68.46
2023-02-15T13:07:33.067Z,67.90
2023-02-15T13:10:25.629Z,67.95
2023-02-15T13:13:04.075Z,68.32
2023-02-15T13:15:48.268Z,68.27
2023-02-15T13:18:36.470Z,68.65
2023-02-15T13:21:21.314Z,68.69
2023-02-15T13:24:04.892Z,68.23
2023-02-15T13:26:45.824Z,68.24
2023-02-15T13:29:30.113Z,68.35
2023-02-15T13:32:23.434Z,68.29
2023-02-15T13:35:06.424Z,68.12
2023-02-15T13:38:27.902Z,68.24
2023-02-15T13:41:13.599Z,68.24
2023-02-15T13:44:06.370Z,68.79
2023-02-15T13:47:08.026Z,68.64
2023-02-15T13:50:06.714Z,68.17
2023-02-15T13:52:59.166Z,68.33
2023-02-15T13:55:46.619Z,68.51
2023-02-15T13:58:57.267Z,68.91
2023-02-15T14:01:46.472Z,68.99
2023-02-15T14:05:00.764Z,68.91
2023-02-15T14:07:58.669Z,68.88
2023-02-15T14:10:59.709Z,68.85
2023-02-15T14:14:14.111Z,68.77
2023-02-15T14:17:07.062Z,69.02
2023-02-15T14:19:54.823Z,69.02
2023-02-15T14:22:41.991Z,68.95
2023-02-15T14:25:37.818Z,69.12
2023-02-15T14:28:24.920Z,69.37
2023-02-15T14:31:02.936Z,69.32
2023-02-15T14:33:49.619Z,69.18
2023-02-15T14:36:27.894Z,69.32
2023-02-15T14:39:42.893Z,69.41
2023-02-15T14:42:33.766Z,69.58
2023-02-15T14:45:27.403Z,69.45
2023-02-15T14:48:15.471Z,69.38
2023-02-15T14:50:53.336Z,69.49
2023-02-15T14:53:45.496Z,69.55
2023-02-15T14:56:34.480Z,69.72
2023-02-15T14:59:27.939Z,69.82
2023-02-15T15:02:19.405Z,69.76
2023-02-15T15:05:11.927Z,69.75
2023-02-15T15:07:54.830Z,69.82
2023-02-15T15:10:50.227Z,69.88
2023-02-15T15:14:05.219Z,70.03
2023-02-15T15:16:57.670Z,70.18
2023-02-15T15:20:09.398Z,70.88
2023-02-15T15:22:48.497Z,71.27
2023-02-15T15:25:50.047Z,71.57
2023-02-15T15:29:03.501Z,71.98
2023-02-15T15:31:57.829Z,72.24
2023-02-15T15:35:17.514Z,72.62
2023-02-15T15:38:56.459Z,73.03
2023-02-15T15:42:03.398Z,73.45
2023-02-15T15:45:26.905Z,73.70
2023-02-15T15:48:39.154Z,73.96
2023-02-15T15:51:22.547Z,74.26
2023-02-15T15:53:59.643Z,74.50
2023-02-15T15:56:39.653Z,74.72
2023-02-15T15:59:28.595Z,74.88
2023-02-15T16:02:16.551Z,75.05
2023-02-15T16:04:53.124Z,75.17
2023-02-15T16:07:31.954Z,75.37
2023-02-15T16:10:24.813Z,75.51
2023-02-15T16:13:01.164Z,75.75
2023-02-15T16:15:50.671Z,75.87
2023-02-15T16:18:30.995Z,76.07
2023-02-15T16:21:16.462Z,76.17
2023-02-15T16:24:45.775Z,76.33
2023-02-15T16:27:41.807Z,76.39
2023-02-15T16:30:45.602Z,76.55
2023-02-15T16:33:22.693Z,76.71
2023-02-15T16:36:04.378Z,76.81
2023-02-15T16:39:12.084Z,76.93
2023-02-15T16:41:49.534Z,77.16
2023-02-15T16:44:27.470Z,77.29
2023-02-15T16:47:04.788Z,77.40
2023-02-15T16:49:45.831Z,77.50
2023-02-15T16:52:27.790Z,77.56
2023-02-15T16:55:05.726Z,77.70
2023-02-15T16:57:47.417Z,77.95
2023-02-15T17:00:32.806Z,78.22
2023-02-15T17:03:25.241Z,78.40
2023-02-15T17:06:04.482Z,78.48
2023-02-15T17:08:48.210Z,78.59
2023-02-15T17:11:38.571Z,78.69
2023-02-15T17:14:42.135Z,79.05
2023-02-15T17:17:22.782Z,79.23
2023-02-15T17:20:00.544Z,79.40
2023-02-15T17:22:41.647Z,79.52
2023-02-15T17:25:34.105Z,79.62
2023-02-15T17:28:23.506Z,79.69
2023-02-15T17:31:01.957Z,79.73
2023-02-15T17:33:44.410Z,79.84
2023-02-15T17:36:25.373Z,79.95
2023-02-15T17:39:24.666Z,79.98
2023-02-15T17:42:00.914Z,79.99
2023-02-15T17:44:37.400Z,80.14
2023-02-15T17:47:21.673Z,80.18
2023-02-15T17:49:58.631Z,80.11
2023-02-15T17:52:38.378Z,80.32
2023-02-15T17:55:40.170Z,80.54
2023-02-15T17:58:20.196Z,80.33
2023-02-15T18:01:19.804Z,80.39
2023-02-15T18:04:15.185Z,80.40
2023-02-15T18:07:09.642Z,80.47
2023-02-15T18:10:03.607Z,80.45
2023-02-15T18:12:41.507Z,80.53
2023-02-15T18:15:17.990Z,80.61
2023-02-15T18:17:54.379Z,80.75
2023-02-15T18:20:37.312Z,81.12
2023-02-15T18:23:17.973Z,81.13
2023-02-15T18:25:54.398Z,81.06
2023-02-15T18:28:30.763Z,80.95
2023-02-15T18:31:07.844Z,80.90
2023-02-15T18:33:49.521Z,80.88
2023-02-15T18:36:32.709Z,80.77
2023-02-15T18:39:25.564Z,80.72
2023-02-15T18:42:03.384Z,80.70
2023-02-15T18:44:39.761Z,80.73
2023-02-15T18:47:16.325Z,80.80
2023-02-15T18:49:53.202Z,80.80
2023-02-15T18:52:36.268Z,80.80
2023-02-15T18:55:29.263Z,80.81
2023-02-15T18:58:06.225Z,80.90
2023-02-15T19:00:43.540Z,80.90
2023-02-15T19:03:20.687Z,80.94
2023-02-15T19:05:57.385Z,81.05
2023-02-15T19:08:33.961Z,81.20
2023-02-15T19:11:16.887Z,81.25
2023-02-15T19:13:54.357Z,81.30
2023-02-15T19:16:38.447Z,81.31
2023-02-15T19:19:14.895Z,81.36
2023-02-15T19:21:52.074Z,81.25
2023-02-15T19:24:38.122Z,81.25
2023-02-15T19:27:27.435Z,81.37
2023-02-15T19:30:09.854Z,81.51
2023-02-15T19:32:47.514Z,81.59
2023-02-15T19:35:28.098Z,81.69
2023-02-15T19:38:09.866Z,81.79
2023-02-15T19:40:45.209Z,81.86
2023-02-15T19:43:26.416Z,81.98
2023-02-15T19:46:03.911Z,82.09
2023-02-15T19:48:40.350Z,82.19
2023-02-15T19:51:17.961Z,82.15
2023-02-15T19:53:55.673Z,82.19
2023-02-15T19:56:33.284Z,82.16
2023-02-15T19:59:27.152Z,82.01
2023-02-15T20:02:03.872Z,81.92
2023-02-15T20:04:40.988Z,82.00
2023-02-15T20:07:29.436Z,82.07
2023-02-15T20:10:14.828Z,82.11
2023-02-15T20:12:51.829Z,82.12
2023-02-15T20:15:32.038Z,82.15
2023-02-15T20:18:08.992Z,82.21
2023-02-15T20:20:50.561Z,82.32
2023-02-15T20:23:31.656Z,82.38
2023-02-15T20:26:18.705Z,82.45
2023-02-15T20:28:55.503Z,82.40
2023-02-15T20:31:33.017Z,82.43
2023-02-15T20:34:10.019Z,82.50
2023-02-15T20:36:46.790Z,82.64
2023-02-15T20:39:23.750Z,82.71
2023-02-15T20:42:00.411Z,82.63
2023-02-15T20:44:37.562Z,82.70
2023-02-15T20:47:14.296Z,82.80
2023-02-15T20:49:51.466Z,82.80
2023-02-15T20:52:27.905Z,82.90
2023-02-15T20:55:04.604Z,83.00
2023-02-15T20:57:41.003Z,83.01
2023-02-15T21:00:25.713Z,82.93
2023-02-15T21:03:12.443Z,82.96
2023-02-15T21:05:49.821Z,83.00
2023-02-15T21:08:28.503Z,83.00
2023-02-15T21:11:05.653Z,83.13
2023-02-15T21:13:43.015Z,83.17
2023-02-15T21:16:20.367Z,83.20
2023-02-15T21:18:56.978Z,83.20
2023-02-15T21:21:33.431Z,83.11
2023-02-15T21:24:16.767Z,83.09
2023-02-15T21:26:53.991Z,83.07
2023-02-15T21:29:32.836Z,83.06
2023-02-15T21:32:11.043Z,83.02
2023-02-15T21:34:48.066Z,82.98
2023-02-15T21:37:38.025Z,83.01
2023-02-15T21:40:30.930Z,83.00
2023-02-15T21:43:30.285Z,83.00
2023-02-15T21:46:34.519Z,83.03
2023-02-15T21:49:11.455Z,83.21
2023-02-15T21:52:05.337Z,83.34
2023-02-15T21:54:42.001Z,83.41
2023-02-15T21:57:22.381Z,83.36
2023-02-15T21:59:58.853Z,83.30
2023-02-15T22:02:36.312Z,83.26
2023-02-15T22:05:22.442Z,83.43
2023-02-15T22:07:58.763Z,83.50
2023-02-15T22:10:36.691Z,83.64
2023-02-15T22:13:22.305Z,83.74
2023-02-15T22:15:59.778Z,83.80
2023-02-15T22:18:37.599Z,83.88
2023-02-15T22:21:16.671Z,83.89
2023-02-15T22:23:52.986Z,83.90
2023-02-15T22:26:31.297Z,83.90
2023-02-15T22:29:08.462Z,83.85
2023-02-15T22:31:45.255Z,83.73
2023-02-15T22:34:34.246Z,83.57
2023-02-15T22:37:11.850Z,83.60
2023-02-15T22:39:50.638Z,83.59
2023-02-15T22:42:31.003Z,83.46
2023-02-15T22:45:08.252Z,83.39
2023-02-15T22:47:44.874Z,83.56
2023-02-15T22:50:26.473Z,83.66
2023-02-15T22:53:05.126Z,83.60
2023-02-15T22:55:43.001Z,83.52
2023-02-15T22:58:26.166Z,83.36
2023-02-15T23:01:03.870Z,83.26
2023-02-15T23:03:40.605Z,83.26
2023-02-15T23:06:18.632Z,83.32
2023-02-15T23:08:54.909Z,83.30
2023-02-15T23:11:31.528Z,83.32
2023-02-15T23:14:07.853Z,83.39
2023-02-15T23:16:44.275Z,83.40
2023-02-15T23:19:20.838Z,83.41
2023-02-15T23:21:57.693Z,83.47
2023-02-15T23:24:35.628Z,83.50
2023-02-15T23:27:36.594Z,83.48
2023-02-15T23:30:20.111Z,83.63
2023-02-15T23:33:02.805Z,83.81
2023-02-15T23:35:39.046Z,83.99
2023-02-15T23:38:31.296Z,84.09
2023-02-15T23:41:20.934Z,84.18
2023-02-15T23:44:05.464Z,84.20
2023-02-15T23:46:47.239Z,84.34
2023-02-15T23:49:24.760Z,84.33
2023-02-15T23:52:02.113Z,84.28
2023-02-15T23:54:38.794Z,84.23
2023-02-15T23:57:17.484Z,84.17
2023-02-15T23:59:54.312Z,84.19
